sensor_id;sensor_type;location;lat;lon;timestamp;temperature;humidity
4904;DHT22;2467;48.142;11.616;2022-07-06T00:00:33;20.20;90.50
4904;DHT22;2467;48.142;11.616;2022-07-06T00:01:05;20.20;90.50
4904;DHT22;2467;48.142;11.616;2022-07-06T00:01:37;20.20;90.40
4904;DHT22;2467;48.142;11.616;2022-07-06T00:02:10;20.20;90.30
4904;DHT22;2467;48.142;11.616;2022-07-06T00:02:42;20.20;90.40
4904;DHT22;2467;48.142;11.616;2022-07-06T00:03:14;20.10;90.40
4904;DHT22;2467;48.142;11.616;2022-07-06T00:03:47;20.10;90.50
4904;DHT22;2467;48.142;11.616;2022-07-06T00:04:26;20.20;90.50
4904;DHT22;2467;48.142;11.616;2022-07-06T00:04:58;20.10;90.60
4904;DHT22;2467;48.142;11.616;2022-07-06T00:05:30;20.20;90.70
4904;DHT22;2467;48.142;11.616;2022-07-06T00:06:02;20.20;90.60
4904;DHT22;2467;48.142;11.616;2022-07-06T00:06:34;20.20;90.60
4904;DHT22;2467;48.142;11.616;2022-07-06T00:07:06;20.20;90.50
4904;DHT22;2467;48.142;11.616;2022-07-06T00:07:39;20.20;90.70
4904;DHT22;2467;48.142;11.616;2022-07-06T00:08:11;20.20;90.20
4904;DHT22;2467;48.142;11.616;2022-07-06T00:08:44;20.20;90.20
4904;DHT22;2467;48.142;11.616;2022-07-06T00:09:16;20.20;90.20
4904;DHT22;2467;48.142;11.616;2022-07-06T00:09:48;20.20;90.20
4904;DHT22;2467;48.142;11.616;2022-07-06T00:10:20;20.20;90.20
4904;DHT22;2467;48.142;11.616;2022-07-06T00:10:52;20.20;90.20
4904;DHT22;2467;48.142;11.616;2022-07-06T00:11:24;20.10;90.20
4904;DHT22;2467;48.142;11.616;2022-07-06T00:11:57;20.20;90.30
4904;DHT22;2467;48.142;11.616;2022-07-06T00:12:29;20.10;90.40
4904;DHT22;2467;48.142;11.616;2022-07-06T00:13:01;20.10;90.50
4904;DHT22;2467;48.142;11.616;2022-07-06T00:13:34;20.10;90.70
4904;DHT22;2467;48.142;11.616;2022-07-06T00:14:06;20.10;90.90
4904;DHT22;2467;48.142;11.616;2022-07-06T00:14:39;20.10;90.90
4904;DHT22;2467;48.142;11.616;2022-07-06T00:15:11;20.00;91.00
4904;DHT22;2467;48.142;11.616;2022-07-06T00:15:44;20.00;91.20
4904;DHT22;2467;48.142;11.616;2022-07-06T00:16:16;20.00;91.40
4904;DHT22;2467;48.142;11.616;2022-07-06T00:16:48;20.10;91.50
4904;DHT22;2467;48.142;11.616;2022-07-06T00:17:20;20.00;91.40
4904;DHT22;2467;48.142;11.616;2022-07-06T00:17:53;20.00;91.60
4904;DHT22;2467;48.142;11.616;2022-07-06T00:18:25;20.00;91.60
4904;DHT22;2467;48.142;11.616;2022-07-06T00:18:58;20.00;91.80
4904;DHT22;2467;48.142;11.616;2022-07-06T00:19:30;20.10;91.80
4904;DHT22;2467;48.142;11.616;2022-07-06T00:20:03;20.10;91.80
4904;DHT22;2467;48.142;11.616;2022-07-06T00:20:35;20.10;91.90
4904;DHT22;2467;48.142;11.616;2022-07-06T00:21:07;20.10;91.90
4904;DHT22;2467;48.142;11.616;2022-07-06T00:21:40;20.10;91.90
4904;DHT22;2467;48.142;11.616;2022-07-06T00:22:12;20.10;92.10
4904;DHT22;2467;48.142;11.616;2022-07-06T00:22:44;20.10;92.20
4904;DHT22;2467;48.142;11.616;2022-07-06T00:23:17;20.00;92.30
4904;DHT22;2467;48.142;11.616;2022-07-06T00:23:49;20.10;92.50
4904;DHT22;2467;48.142;11.616;2022-07-06T00:24:21;20.10;92.50
4904;DHT22;2467;48.142;11.616;2022-07-06T00:24:53;20.10;92.60
4904;DHT22;2467;48.142;11.616;2022-07-06T00:25:25;20.10;92.70
4904;DHT22;2467;48.142;11.616;2022-07-06T00:25:57;20.10;92.70
4904;DHT22;2467;48.142;11.616;2022-07-06T00:26:30;20.10;92.90
4904;DHT22;2467;48.142;11.616;2022-07-06T00:27:03;20.10;93.10
4904;DHT22;2467;48.142;11.616;2022-07-06T00:27:35;20.00;93.10
4904;DHT22;2467;48.142;11.616;2022-07-06T00:28:07;20.00;93.40
4904;DHT22;2467;48.142;11.616;2022-07-06T00:28:40;20.00;93.60
4904;DHT22;2467;48.142;11.616;2022-07-06T00:29:11;20.00;93.70
4904;DHT22;2467;48.142;11.616;2022-07-06T00:29:46;20.00;93.80
4904;DHT22;2467;48.142;11.616;2022-07-06T00:30:18;20.00;93.70
4904;DHT22;2467;48.142;11.616;2022-07-06T00:30:49;20.00;93.70
4904;DHT22;2467;48.142;11.616;2022-07-06T00:31:22;20.00;93.80
4904;DHT22;2467;48.142;11.616;2022-07-06T00:31:54;20.00;93.90
4904;DHT22;2467;48.142;11.616;2022-07-06T00:32:26;20.00;93.90
4904;DHT22;2467;48.142;11.616;2022-07-06T00:32:59;20.00;94.00
4904;DHT22;2467;48.142;11.616;2022-07-06T00:33:31;20.00;93.80
4904;DHT22;2467;48.142;11.616;2022-07-06T00:34:03;20.00;94.10
4904;DHT22;2467;48.142;11.616;2022-07-06T00:34:35;20.00;94.00
4904;DHT22;2467;48.142;11.616;2022-07-06T00:35:08;20.00;94.00
4904;DHT22;2467;48.142;11.616;2022-07-06T00:35:40;20.00;94.10
4904;DHT22;2467;48.142;11.616;2022-07-06T00:36:12;20.00;94.10
4904;DHT22;2467;48.142;11.616;2022-07-06T00:36:44;20.00;94.20
4904;DHT22;2467;48.142;11.616;2022-07-06T00:37:16;20.00;94.40
4904;DHT22;2467;48.142;11.616;2022-07-06T00:37:48;20.00;94.60
4904;DHT22;2467;48.142;11.616;2022-07-06T00:38:20;20.00;94.80
4904;DHT22;2467;48.142;11.616;2022-07-06T00:38:54;19.90;94.90
4904;DHT22;2467;48.142;11.616;2022-07-06T00:39:26;19.90;95.00
4904;DHT22;2467;48.142;11.616;2022-07-06T00:40:01;20.00;95.10
4904;DHT22;2467;48.142;11.616;2022-07-06T00:40:34;20.00;95.10
4904;DHT22;2467;48.142;11.616;2022-07-06T00:41:05;20.00;95.10
4904;DHT22;2467;48.142;11.616;2022-07-06T00:41:37;20.00;95.20
4904;DHT22;2467;48.142;11.616;2022-07-06T00:42:10;19.90;95.20
4904;DHT22;2467;48.142;11.616;2022-07-06T00:42:43;20.00;95.40
4904;DHT22;2467;48.142;11.616;2022-07-06T00:43:15;20.00;95.40
4904;DHT22;2467;48.142;11.616;2022-07-06T00:43:50;20.00;95.40
4904;DHT22;2467;48.142;11.616;2022-07-06T00:44:22;20.00;95.60
4904;DHT22;2467;48.142;11.616;2022-07-06T00:44:56;20.10;95.80
4904;DHT22;2467;48.142;11.616;2022-07-06T00:45:28;20.10;96.30
4904;DHT22;2467;48.142;11.616;2022-07-06T00:46:00;20.00;96.40
4904;DHT22;2467;48.142;11.616;2022-07-06T00:46:33;20.10;96.60
4904;DHT22;2467;48.142;11.616;2022-07-06T00:47:05;20.10;96.60
4904;DHT22;2467;48.142;11.616;2022-07-06T00:47:39;20.10;96.90
4904;DHT22;2467;48.142;11.616;2022-07-06T00:48:11;20.10;96.50
4904;DHT22;2467;48.142;11.616;2022-07-06T00:48:43;20.10;96.30
4904;DHT22;2467;48.142;11.616;2022-07-06T00:49:16;20.10;96.20
4904;DHT22;2467;48.142;11.616;2022-07-06T00:50:04;20.00;96.00
4904;DHT22;2467;48.142;11.616;2022-07-06T00:50:45;20.00;96.10
4904;DHT22;2467;48.142;11.616;2022-07-06T00:51:18;20.00;96.30
4904;DHT22;2467;48.142;11.616;2022-07-06T00:51:51;20.00;96.60
4904;DHT22;2467;48.142;11.616;2022-07-06T00:52:22;20.00;96.70
4904;DHT22;2467;48.142;11.616;2022-07-06T00:52:57;19.90;96.90
4904;DHT22;2467;48.142;11.616;2022-07-06T00:53:31;19.90;97.10
4904;DHT22;2467;48.142;11.616;2022-07-06T00:54:04;19.90;97.40
4904;DHT22;2467;48.142;11.616;2022-07-06T00:54:36;19.90;97.60
4904;DHT22;2467;48.142;11.616;2022-07-06T00:55:11;19.90;97.80
4904;DHT22;2467;48.142;11.616;2022-07-06T00:55:43;19.80;98.00
4904;DHT22;2467;48.142;11.616;2022-07-06T00:56:15;19.80;98.20
4904;DHT22;2467;48.142;11.616;2022-07-06T00:56:48;19.80;98.70
4904;DHT22;2467;48.142;11.616;2022-07-06T00:57:20;19.80;99.20
4904;DHT22;2467;48.142;11.616;2022-07-06T00:57:52;19.70;99.80
4904;DHT22;2467;48.142;11.616;2022-07-06T00:58:25;19.80;99.90
4904;DHT22;2467;48.142;11.616;2022-07-06T00:58:57;19.70;99.90
4904;DHT22;2467;48.142;11.616;2022-07-06T00:59:30;19.70;99.90
4904;DHT22;2467;48.142;11.616;2022-07-06T01:00:06;19.60;99.90
4904;DHT22;2467;48.142;11.616;2022-07-06T01:00:38;19.60;99.90
4904;DHT22;2467;48.142;11.616;2022-07-06T01:01:16;19.60;99.90
4904;DHT22;2467;48.142;11.616;2022-07-06T01:01:49;19.60;99.90
4904;DHT22;2467;48.142;11.616;2022-07-06T01:02:21;19.50;99.90
4904;DHT22;2467;48.142;11.616;2022-07-06T01:02:54;19.50;99.90
4904;DHT22;2467;48.142;11.616;2022-07-06T01:03:27;19.50;99.90
4904;DHT22;2467;48.142;11.616;2022-07-06T01:03:59;19.50;99.90
4904;DHT22;2467;48.142;11.616;2022-07-06T01:04:31;19.50;99.90
4904;DHT22;2467;48.142;11.616;2022-07-06T01:05:05;19.50;99.90
4904;DHT22;2467;48.142;11.616;2022-07-06T01:05:37;19.50;99.90
4904;DHT22;2467;48.142;11.616;2022-07-06T01:06:09;19.50;99.90
4904;DHT22;2467;48.142;11.616;2022-07-06T01:06:43;19.50;99.90
4904;DHT22;2467;48.142;11.616;2022-07-06T01:07:16;19.50;99.90
4904;DHT22;2467;48.142;11.616;2022-07-06T01:07:49;19.50;99.90
4904;DHT22;2467;48.142;11.616;2022-07-06T01:08:22;19.50;99.90
4904;DHT22;2467;48.142;11.616;2022-07-06T01:08:55;19.50;99.90
4904;DHT22;2467;48.142;11.616;2022-07-06T01:09:28;19.50;99.90
4904;DHT22;2467;48.142;11.616;2022-07-06T01:10:02;19.50;99.90
4904;DHT22;2467;48.142;11.616;2022-07-06T01:10:34;19.50;99.90
4904;DHT22;2467;48.142;11.616;2022-07-06T01:11:07;19.50;99.90
4904;DHT22;2467;48.142;11.616;2022-07-06T01:11:39;19.50;99.90
4904;DHT22;2467;48.142;11.616;2022-07-06T01:12:11;19.50;99.90
4904;DHT22;2467;48.142;11.616;2022-07-06T01:12:45;19.50;99.90
4904;DHT22;2467;48.142;11.616;2022-07-06T01:13:17;19.50;99.90
4904;DHT22;2467;48.142;11.616;2022-07-06T01:13:50;19.50;99.90
4904;DHT22;2467;48.142;11.616;2022-07-06T01:14:23;19.50;99.90
4904;DHT22;2467;48.142;11.616;2022-07-06T01:14:55;19.50;99.90
4904;DHT22;2467;48.142;11.616;2022-07-06T01:15:29;19.50;99.90
4904;DHT22;2467;48.142;11.616;2022-07-06T01:16:02;19.50;99.90
4904;DHT22;2467;48.142;11.616;2022-07-06T01:16:34;19.60;99.90
4904;DHT22;2467;48.142;11.616;2022-07-06T01:17:06;19.50;99.90
4904;DHT22;2467;48.142;11.616;2022-07-06T01:17:40;19.60;99.90
4904;DHT22;2467;48.142;11.616;2022-07-06T01:18:12;19.50;99.90
4904;DHT22;2467;48.142;11.616;2022-07-06T01:18:44;19.60;99.90
4904;DHT22;2467;48.142;11.616;2022-07-06T01:19:17;19.60;99.90
4904;DHT22;2467;48.142;11.616;2022-07-06T01:19:49;19.60;99.90
4904;DHT22;2467;48.142;11.616;2022-07-06T01:20:24;19.60;99.90
4904;DHT22;2467;48.142;11.616;2022-07-06T01:21:08;19.60;99.90
4904;DHT22;2467;48.142;11.616;2022-07-06T01:21:40;19.60;99.90
4904;DHT22;2467;48.142;11.616;2022-07-06T01:22:12;19.60;99.90
4904;DHT22;2467;48.142;11.616;2022-07-06T01:22:46;19.60;99.90
4904;DHT22;2467;48.142;11.616;2022-07-06T01:23:18;19.60;99.90
4904;DHT22;2467;48.142;11.616;2022-07-06T01:23:50;19.60;99.90
4904;DHT22;2467;48.142;11.616;2022-07-06T01:24:23;19.60;99.90
4904;DHT22;2467;48.142;11.616;2022-07-06T01:24:54;19.60;99.90
4904;DHT22;2467;48.142;11.616;2022-07-06T01:25:26;19.60;99.90
4904;DHT22;2467;48.142;11.616;2022-07-06T01:25:59;19.60;99.90
4904;DHT22;2467;48.142;11.616;2022-07-06T01:26:31;19.60;99.90
4904;DHT22;2467;48.142;11.616;2022-07-06T01:27:04;19.60;99.90
4904;DHT22;2467;48.142;11.616;2022-07-06T01:27:37;19.60;99.90
4904;DHT22;2467;48.142;11.616;2022-07-06T01:28:11;19.60;99.90
4904;DHT22;2467;48.142;11.616;2022-07-06T01:28:43;19.50;99.90
4904;DHT22;2467;48.142;11.616;2022-07-06T01:29:16;19.60;99.90
4904;DHT22;2467;48.142;11.616;2022-07-06T01:29:48;19.50;99.90
4904;DHT22;2467;48.142;11.616;2022-07-06T01:30:20;19.50;99.90
4904;DHT22;2467;48.142;11.616;2022-07-06T01:30:53;19.50;99.90
4904;DHT22;2467;48.142;11.616;2022-07-06T01:31:26;19.60;99.90
4904;DHT22;2467;48.142;11.616;2022-07-06T01:31:58;19.50;99.90
4904;DHT22;2467;48.142;11.616;2022-07-06T01:32:31;19.50;99.90
4904;DHT22;2467;48.142;11.616;2022-07-06T01:33:03;19.50;99.90
4904;DHT22;2467;48.142;11.616;2022-07-06T01:33:35;19.50;99.90
4904;DHT22;2467;48.142;11.616;2022-07-06T01:34:09;19.50;99.90
4904;DHT22;2467;48.142;11.616;2022-07-06T01:34:41;19.50;99.90
4904;DHT22;2467;48.142;11.616;2022-07-06T01:35:14;19.40;99.90
4904;DHT22;2467;48.142;11.616;2022-07-06T01:35:49;19.50;99.90
4904;DHT22;2467;48.142;11.616;2022-07-06T01:36:21;19.40;99.90
4904;DHT22;2467;48.142;11.616;2022-07-06T01:36:54;19.40;99.90
4904;DHT22;2467;48.142;11.616;2022-07-06T01:37:26;19.40;99.90
4904;DHT22;2467;48.142;11.616;2022-07-06T01:37:58;19.40;99.90
4904;DHT22;2467;48.142;11.616;2022-07-06T01:38:30;19.40;99.90
4904;DHT22;2467;48.142;11.616;2022-07-06T01:39:02;19.40;99.90
4904;DHT22;2467;48.142;11.616;2022-07-06T01:39:34;19.40;99.90
4904;DHT22;2467;48.142;11.616;2022-07-06T01:40:09;19.50;99.90
4904;DHT22;2467;48.142;11.616;2022-07-06T01:40:41;19.50;99.90
4904;DHT22;2467;48.142;11.616;2022-07-06T01:41:13;19.40;99.90
4904;DHT22;2467;48.142;11.616;2022-07-06T01:41:46;19.50;99.90
4904;DHT22;2467;48.142;11.616;2022-07-06T01:42:18;19.40;99.90
4904;DHT22;2467;48.142;11.616;2022-07-06T01:42:50;19.50;99.90
4904;DHT22;2467;48.142;11.616;2022-07-06T01:43:23;19.40;99.90
4904;DHT22;2467;48.142;11.616;2022-07-06T01:43:54;19.40;99.90
4904;DHT22;2467;48.142;11.616;2022-07-06T01:44:26;19.40;99.90
4904;DHT22;2467;48.142;11.616;2022-07-06T01:44:59;19.40;99.90
4904;DHT22;2467;48.142;11.616;2022-07-06T01:45:32;19.40;99.90
4904;DHT22;2467;48.142;11.616;2022-07-06T01:46:04;19.40;99.90
4904;DHT22;2467;48.142;11.616;2022-07-06T01:46:37;19.40;99.90
4904;DHT22;2467;48.142;11.616;2022-07-06T01:47:09;19.40;99.90
4904;DHT22;2467;48.142;11.616;2022-07-06T01:47:41;19.40;99.90
4904;DHT22;2467;48.142;11.616;2022-07-06T01:48:14;19.40;99.90
4904;DHT22;2467;48.142;11.616;2022-07-06T01:48:46;19.40;99.90
4904;DHT22;2467;48.142;11.616;2022-07-06T01:49:18;19.40;99.90
4904;DHT22;2467;48.142;11.616;2022-07-06T01:49:51;19.40;99.90
4904;DHT22;2467;48.142;11.616;2022-07-06T01:50:23;19.40;99.90
4904;DHT22;2467;48.142;11.616;2022-07-06T01:50:56;19.40;99.90
4904;DHT22;2467;48.142;11.616;2022-07-06T01:51:29;19.30;99.90
4904;DHT22;2467;48.142;11.616;2022-07-06T01:52:01;19.30;99.90
4904;DHT22;2467;48.142;11.616;2022-07-06T01:52:34;19.30;99.90
4904;DHT22;2467;48.142;11.616;2022-07-06T01:53:07;19.30;99.90
4904;DHT22;2467;48.142;11.616;2022-07-06T01:53:38;19.30;99.90
4904;DHT22;2467;48.142;11.616;2022-07-06T01:54:11;19.30;99.90
4904;DHT22;2467;48.142;11.616;2022-07-06T01:54:43;19.30;99.90
4904;DHT22;2467;48.142;11.616;2022-07-06T01:55:15;19.30;99.90
4904;DHT22;2467;48.142;11.616;2022-07-06T01:55:48;19.40;99.90
4904;DHT22;2467;48.142;11.616;2022-07-06T01:56:21;19.30;99.90
4904;DHT22;2467;48.142;11.616;2022-07-06T01:56:53;19.40;99.90
4904;DHT22;2467;48.142;11.616;2022-07-06T01:57:25;19.30;99.90
4904;DHT22;2467;48.142;11.616;2022-07-06T01:57:57;19.30;99.90
4904;DHT22;2467;48.142;11.616;2022-07-06T01:58:29;19.30;99.90
4904;DHT22;2467;48.142;11.616;2022-07-06T01:59:02;19.30;99.90
4904;DHT22;2467;48.142;11.616;2022-07-06T01:59:34;19.30;99.90
4904;DHT22;2467;48.142;11.616;2022-07-06T02:00:07;19.30;99.90
4904;DHT22;2467;48.142;11.616;2022-07-06T02:00:40;19.30;99.90
4904;DHT22;2467;48.142;11.616;2022-07-06T02:01:16;19.30;99.90
4904;DHT22;2467;48.142;11.616;2022-07-06T02:01:48;19.20;99.90
4904;DHT22;2467;48.142;11.616;2022-07-06T02:02:20;19.20;99.90
4904;DHT22;2467;48.142;11.616;2022-07-06T02:02:53;19.20;99.90
4904;DHT22;2467;48.142;11.616;2022-07-06T02:03:25;19.20;99.90
4904;DHT22;2467;48.142;11.616;2022-07-06T02:03:57;19.20;99.90
4904;DHT22;2467;48.142;11.616;2022-07-06T02:04:30;19.20;99.90
4904;DHT22;2467;48.142;11.616;2022-07-06T02:05:03;19.20;99.90
4904;DHT22;2467;48.142;11.616;2022-07-06T02:05:35;19.20;99.90
4904;DHT22;2467;48.142;11.616;2022-07-06T02:06:10;19.20;99.90
4904;DHT22;2467;48.142;11.616;2022-07-06T02:06:43;19.10;99.90
4904;DHT22;2467;48.142;11.616;2022-07-06T02:07:15;19.10;99.90
4904;DHT22;2467;48.142;11.616;2022-07-06T02:07:48;19.10;99.90
4904;DHT22;2467;48.142;11.616;2022-07-06T02:08:20;19.10;99.90
4904;DHT22;2467;48.142;11.616;2022-07-06T02:08:52;19.10;99.90
4904;DHT22;2467;48.142;11.616;2022-07-06T02:09:25;19.10;99.90
4904;DHT22;2467;48.142;11.616;2022-07-06T02:09:57;19.10;99.90
4904;DHT22;2467;48.142;11.616;2022-07-06T02:10:29;19.10;99.90
4904;DHT22;2467;48.142;11.616;2022-07-06T02:11:02;19.10;99.90
4904;DHT22;2467;48.142;11.616;2022-07-06T02:11:34;19.10;99.90
4904;DHT22;2467;48.142;11.616;2022-07-06T02:12:06;19.10;99.90
4904;DHT22;2467;48.142;11.616;2022-07-06T02:12:38;19.10;99.90
4904;DHT22;2467;48.142;11.616;2022-07-06T02:13:11;19.10;99.90
4904;DHT22;2467;48.142;11.616;2022-07-06T02:13:43;19.00;99.90
4904;DHT22;2467;48.142;11.616;2022-07-06T02:14:15;19.10;99.90
4904;DHT22;2467;48.142;11.616;2022-07-06T02:14:48;19.10;99.90
4904;DHT22;2467;48.142;11.616;2022-07-06T02:15:20;19.10;99.90
4904;DHT22;2467;48.142;11.616;2022-07-06T02:15:53;19.10;99.90
4904;DHT22;2467;48.142;11.616;2022-07-06T02:16:24;19.10;99.90
4904;DHT22;2467;48.142;11.616;2022-07-06T02:16:57;19.10;99.90
4904;DHT22;2467;48.142;11.616;2022-07-06T02:17:30;19.20;99.90
4904;DHT22;2467;48.142;11.616;2022-07-06T02:18:02;19.20;99.90
4904;DHT22;2467;48.142;11.616;2022-07-06T02:18:34;19.20;99.90
4904;DHT22;2467;48.142;11.616;2022-07-06T02:19:08;19.20;99.90
4904;DHT22;2467;48.142;11.616;2022-07-06T02:19:40;19.20;99.90
4904;DHT22;2467;48.142;11.616;2022-07-06T02:20:12;19.20;99.90
4904;DHT22;2467;48.142;11.616;2022-07-06T02:20:45;19.20;99.90
4904;DHT22;2467;48.142;11.616;2022-07-06T02:21:19;19.20;99.90
4904;DHT22;2467;48.142;11.616;2022-07-06T02:21:51;19.20;99.90
4904;DHT22;2467;48.142;11.616;2022-07-06T02:22:23;19.10;99.90
4904;DHT22;2467;48.142;11.616;2022-07-06T02:22:55;19.10;99.90
4904;DHT22;2467;48.142;11.616;2022-07-06T02:23:27;19.10;99.90
4904;DHT22;2467;48.142;11.616;2022-07-06T02:24:00;19.10;99.90
4904;DHT22;2467;48.142;11.616;2022-07-06T02:24:32;19.10;99.90
4904;DHT22;2467;48.142;11.616;2022-07-06T02:25:05;19.00;99.90
4904;DHT22;2467;48.142;11.616;2022-07-06T02:25:38;19.00;99.90
4904;DHT22;2467;48.142;11.616;2022-07-06T02:26:10;19.00;99.90
4904;DHT22;2467;48.142;11.616;2022-07-06T02:26:42;18.90;99.90
4904;DHT22;2467;48.142;11.616;2022-07-06T02:27:15;19.00;99.90
4904;DHT22;2467;48.142;11.616;2022-07-06T02:27:46;19.00;99.90
4904;DHT22;2467;48.142;11.616;2022-07-06T02:28:18;18.90;99.90
4904;DHT22;2467;48.142;11.616;2022-07-06T02:28:52;18.90;99.90
4904;DHT22;2467;48.142;11.616;2022-07-06T02:29:23;18.90;99.90
4904;DHT22;2467;48.142;11.616;2022-07-06T02:29:57;18.90;99.90
4904;DHT22;2467;48.142;11.616;2022-07-06T02:30:30;18.80;99.90
4904;DHT22;2467;48.142;11.616;2022-07-06T02:31:02;18.80;99.90
4904;DHT22;2467;48.142;11.616;2022-07-06T02:31:34;18.80;99.90
4904;DHT22;2467;48.142;11.616;2022-07-06T02:32:07;18.90;99.90
4904;DHT22;2467;48.142;11.616;2022-07-06T02:32:39;18.80;99.90
4904;DHT22;2467;48.142;11.616;2022-07-06T02:33:11;18.90;99.90
4904;DHT22;2467;48.142;11.616;2022-07-06T02:33:44;18.90;99.90
4904;DHT22;2467;48.142;11.616;2022-07-06T02:34:16;18.90;99.90
4904;DHT22;2467;48.142;11.616;2022-07-06T02:34:48;18.90;99.90
4904;DHT22;2467;48.142;11.616;2022-07-06T02:35:21;19.00;99.90
4904;DHT22;2467;48.142;11.616;2022-07-06T02:35:53;19.00;99.90
4904;DHT22;2467;48.142;11.616;2022-07-06T02:36:26;19.00;99.90
4904;DHT22;2467;48.142;11.616;2022-07-06T02:36:59;19.00;99.90
4904;DHT22;2467;48.142;11.616;2022-07-06T02:37:31;19.00;99.90
4904;DHT22;2467;48.142;11.616;2022-07-06T02:38:03;19.00;99.90
4904;DHT22;2467;48.142;11.616;2022-07-06T02:38:36;19.00;99.90
4904;DHT22;2467;48.142;11.616;2022-07-06T02:39:08;19.00;99.90
4904;DHT22;2467;48.142;11.616;2022-07-06T02:39:40;19.00;99.90
4904;DHT22;2467;48.142;11.616;2022-07-06T02:40:13;18.90;99.90
4904;DHT22;2467;48.142;11.616;2022-07-06T02:40:45;18.80;99.90
4904;DHT22;2467;48.142;11.616;2022-07-06T02:41:17;18.80;99.90
4904;DHT22;2467;48.142;11.616;2022-07-06T02:41:49;18.70;99.90
4904;DHT22;2467;48.142;11.616;2022-07-06T02:42:22;18.80;99.90
4904;DHT22;2467;48.142;11.616;2022-07-06T02:42:54;18.70;99.90
4904;DHT22;2467;48.142;11.616;2022-07-06T02:43:26;18.60;99.90
4904;DHT22;2467;48.142;11.616;2022-07-06T02:43:59;18.70;99.90
4904;DHT22;2467;48.142;11.616;2022-07-06T02:44:30;18.60;99.90
4904;DHT22;2467;48.142;11.616;2022-07-06T02:45:03;18.70;99.90
4904;DHT22;2467;48.142;11.616;2022-07-06T02:45:36;18.60;99.90
4904;DHT22;2467;48.142;11.616;2022-07-06T02:46:08;18.60;99.90
4904;DHT22;2467;48.142;11.616;2022-07-06T02:46:40;18.60;99.90
4904;DHT22;2467;48.142;11.616;2022-07-06T02:47:13;18.60;99.90
4904;DHT22;2467;48.142;11.616;2022-07-06T02:47:45;18.60;99.90
4904;DHT22;2467;48.142;11.616;2022-07-06T02:48:17;18.70;99.90
4904;DHT22;2467;48.142;11.616;2022-07-06T02:48:49;18.70;99.90
4904;DHT22;2467;48.142;11.616;2022-07-06T02:49:22;18.70;99.90
4904;DHT22;2467;48.142;11.616;2022-07-06T02:49:54;18.70;99.90
4904;DHT22;2467;48.142;11.616;2022-07-06T02:50:26;18.70;99.90
4904;DHT22;2467;48.142;11.616;2022-07-06T02:50:59;18.70;99.90
4904;DHT22;2467;48.142;11.616;2022-07-06T02:51:32;18.70;99.90
4904;DHT22;2467;48.142;11.616;2022-07-06T02:52:04;18.60;99.90
4904;DHT22;2467;48.142;11.616;2022-07-06T02:52:37;18.60;99.90
4904;DHT22;2467;48.142;11.616;2022-07-06T02:53:12;18.60;99.90
4904;DHT22;2467;48.142;11.616;2022-07-06T02:53:43;18.60;99.90
4904;DHT22;2467;48.142;11.616;2022-07-06T02:54:16;18.60;99.90
4904;DHT22;2467;48.142;11.616;2022-07-06T02:54:48;18.60;99.90
4904;DHT22;2467;48.142;11.616;2022-07-06T02:55:20;18.50;99.90
4904;DHT22;2467;48.142;11.616;2022-07-06T02:55:53;18.50;99.90
4904;DHT22;2467;48.142;11.616;2022-07-06T02:56:25;18.40;99.90
4904;DHT22;2467;48.142;11.616;2022-07-06T02:56:57;18.40;99.90
4904;DHT22;2467;48.142;11.616;2022-07-06T02:57:30;18.40;99.90
4904;DHT22;2467;48.142;11.616;2022-07-06T02:58:02;18.40;99.90
4904;DHT22;2467;48.142;11.616;2022-07-06T02:58:34;18.40;99.90
4904;DHT22;2467;48.142;11.616;2022-07-06T02:59:07;18.30;99.90
4904;DHT22;2467;48.142;11.616;2022-07-06T02:59:44;18.20;99.90
4904;DHT22;2467;48.142;11.616;2022-07-06T03:00:17;18.20;99.90
4904;DHT22;2467;48.142;11.616;2022-07-06T03:00:50;18.20;99.90
4904;DHT22;2467;48.142;11.616;2022-07-06T03:01:22;18.30;99.90
4904;DHT22;2467;48.142;11.616;2022-07-06T03:01:55;18.20;99.90
4904;DHT22;2467;48.142;11.616;2022-07-06T03:02:27;18.20;99.90
4904;DHT22;2467;48.142;11.616;2022-07-06T03:02:59;18.20;99.90
4904;DHT22;2467;48.142;11.616;2022-07-06T03:03:32;18.20;99.90
4904;DHT22;2467;48.142;11.616;2022-07-06T03:04:04;18.20;99.90
4904;DHT22;2467;48.142;11.616;2022-07-06T03:04:37;18.20;99.90
4904;DHT22;2467;48.142;11.616;2022-07-06T03:05:10;18.20;99.90
4904;DHT22;2467;48.142;11.616;2022-07-06T03:05:42;18.20;99.90
4904;DHT22;2467;48.142;11.616;2022-07-06T03:06:14;18.20;99.90
4904;DHT22;2467;48.142;11.616;2022-07-06T03:06:48;18.20;99.90
4904;DHT22;2467;48.142;11.616;2022-07-06T03:07:20;18.20;99.90
4904;DHT22;2467;48.142;11.616;2022-07-06T03:07:52;18.20;99.90
4904;DHT22;2467;48.142;11.616;2022-07-06T03:08:25;18.20;99.90
4904;DHT22;2467;48.142;11.616;2022-07-06T03:08:57;18.20;99.90
4904;DHT22;2467;48.142;11.616;2022-07-06T03:09:29;18.20;99.90
4904;DHT22;2467;48.142;11.616;2022-07-06T03:10:02;18.20;99.90
4904;DHT22;2467;48.142;11.616;2022-07-06T03:10:34;18.20;99.90
4904;DHT22;2467;48.142;11.616;2022-07-06T03:11:06;18.20;99.90
4904;DHT22;2467;48.142;11.616;2022-07-06T03:11:39;18.30;99.90
4904;DHT22;2467;48.142;11.616;2022-07-06T03:12:11;18.30;99.90
4904;DHT22;2467;48.142;11.616;2022-07-06T03:12:43;18.30;99.90
4904;DHT22;2467;48.142;11.616;2022-07-06T03:13:16;18.30;99.90
4904;DHT22;2467;48.142;11.616;2022-07-06T03:13:48;18.30;99.90
4904;DHT22;2467;48.142;11.616;2022-07-06T03:14:20;18.40;99.90
4904;DHT22;2467;48.142;11.616;2022-07-06T03:14:53;18.40;99.90
4904;DHT22;2467;48.142;11.616;2022-07-06T03:15:24;18.40;99.90
4904;DHT22;2467;48.142;11.616;2022-07-06T03:15:56;18.40;99.90
4904;DHT22;2467;48.142;11.616;2022-07-06T03:16:29;18.50;99.90
4904;DHT22;2467;48.142;11.616;2022-07-06T03:17:01;18.40;99.90
4904;DHT22;2467;48.142;11.616;2022-07-06T03:17:33;18.50;99.90
4904;DHT22;2467;48.142;11.616;2022-07-06T03:18:06;18.50;99.90
4904;DHT22;2467;48.142;11.616;2022-07-06T03:18:39;18.50;99.90
4904;DHT22;2467;48.142;11.616;2022-07-06T03:19:11;18.50;99.90
4904;DHT22;2467;48.142;11.616;2022-07-06T03:19:44;18.50;99.90
4904;DHT22;2467;48.142;11.616;2022-07-06T03:20:15;18.50;99.90
4904;DHT22;2467;48.142;11.616;2022-07-06T03:20:47;18.50;99.90
4904;DHT22;2467;48.142;11.616;2022-07-06T03:21:20;18.50;99.90
4904;DHT22;2467;48.142;11.616;2022-07-06T03:21:53;18.40;99.90
4904;DHT22;2467;48.142;11.616;2022-07-06T03:22:25;18.40;99.90
4904;DHT22;2467;48.142;11.616;2022-07-06T03:22:58;18.40;99.90
4904;DHT22;2467;48.142;11.616;2022-07-06T03:23:30;18.40;99.90
4904;DHT22;2467;48.142;11.616;2022-07-06T03:24:02;18.40;99.90
4904;DHT22;2467;48.142;11.616;2022-07-06T03:24:35;18.40;99.90
4904;DHT22;2467;48.142;11.616;2022-07-06T03:25:07;18.30;99.90
4904;DHT22;2467;48.142;11.616;2022-07-06T03:25:39;18.30;99.90
4904;DHT22;2467;48.142;11.616;2022-07-06T03:26:12;18.30;99.90
4904;DHT22;2467;48.142;11.616;2022-07-06T03:26:44;18.30;99.90
4904;DHT22;2467;48.142;11.616;2022-07-06T03:27:16;18.30;99.90
4904;DHT22;2467;48.142;11.616;2022-07-06T03:27:49;18.30;99.90
4904;DHT22;2467;48.142;11.616;2022-07-06T03:28:21;18.30;99.90
4904;DHT22;2467;48.142;11.616;2022-07-06T03:28:53;18.30;99.90
4904;DHT22;2467;48.142;11.616;2022-07-06T03:29:26;18.30;99.90